Teaticket, Massachusetts
Current Conditions -  °F | °C
As of 4:35 AM on Friday 24 Oct 2014 (Local Time) from KFMH Reporting Station
Haze Haze  
Wind Chill: 50°   Ceiling: 700
Heat Index: 50°   Visibility: 2.5mi
Dew Point: 50°   Wind: 15mph
Humidity: 100%   Direction: 360°N
Pressure: 29.61"   Gusts: 23mph
Location:  41.6005°N, 70.5664°W
Report Text: KFMH 240835Z AUTO 36013G20KT 2 1/2SM BR OVC007 10/10 A2961 RMK AO2
Loading
Personal Weather Stations






























Interactive Weather Map
Tropical Storm Tracking
New forecast layout! Learn more

10-Day Weather Forecast

Advertisements
Track Severe Weather on mobile